createdAt,value
2023-02-08T00:01:44.507Z,78.16
2023-02-08T00:04:10.958Z,79.16
2023-02-08T00:06:37.414Z,79.51
2023-02-08T00:09:04.062Z,80.16
2023-02-08T00:11:30.526Z,80.56
2023-02-08T00:13:56.966Z,81.66
2023-02-08T00:16:23.599Z,81.84
2023-02-08T00:18:50.056Z,82.15
2023-02-08T00:21:17.994Z,82.72
2023-02-08T00:23:44.954Z,83.29
2023-02-08T00:26:12.208Z,83.95
2023-02-08T00:28:41.001Z,84.37
2023-02-08T00:31:07.918Z,84.47
2023-02-08T00:33:34.648Z,84.50
2023-02-08T00:36:02.376Z,84.16
2023-02-08T00:38:29.472Z,84.87
2023-02-08T00:40:55.974Z,84.38
2023-02-08T00:43:24.064Z,84.63
2023-02-08T00:45:57.293Z,83.36
2023-02-08T00:48:25.426Z,84.42
2023-02-08T00:51:04.473Z,85.40
2023-02-08T00:53:31.222Z,85.28
2023-02-08T00:55:57.840Z,85.80
2023-02-08T00:58:25.163Z,85.93
2023-02-08T01:00:53.641Z,87.00
2023-02-08T01:03:21.857Z,86.61
2023-02-08T01:05:48.674Z,86.36
2023-02-08T01:08:15.181Z,87.31
2023-02-08T01:10:42.706Z,88.36
2023-02-08T01:13:09.828Z,87.30
2023-02-08T01:15:36.729Z,88.80
2023-02-08T01:18:03.684Z,89.84
2023-02-08T01:20:30.319Z,89.24
2023-02-08T01:22:56.993Z,89.62
2023-02-08T01:25:23.561Z,90.30
2023-02-08T01:27:50.029Z,90.77
2023-02-08T01:30:17.521Z,91.44
2023-02-08T01:32:44.034Z,90.84
2023-02-08T01:35:10.504Z,90.71
2023-02-08T01:37:37.400Z,90.24
2023-02-08T01:40:04.307Z,90.95
2023-02-08T01:42:30.850Z,90.31
2023-02-08T01:45:15.690Z,89.50
2023-02-08T01:47:45.253Z,90.29
2023-02-08T01:50:13.411Z,89.67
2023-02-08T01:52:43.563Z,89.70
2023-02-08T01:55:20.542Z,90.52
2023-02-08T01:57:52.335Z,90.52
2023-02-08T02:00:22.304Z,90.31
2023-02-08T02:02:55.856Z,90.96
2023-02-08T02:05:27.883Z,92.06
2023-02-08T02:07:57.373Z,91.93
2023-02-08T02:10:33.043Z,92.09
2023-02-08T02:13:09.308Z,91.18
2023-02-08T02:15:36.079Z,91.71
2023-02-08T02:18:05.765Z,92.35
2023-02-08T02:20:47.667Z,91.83
2023-02-08T02:23:17.083Z,92.08
2023-02-08T02:26:05.406Z,93.18
2023-02-08T02:29:02.856Z,92.02
2023-02-08T02:31:47.728Z,92.77
2023-02-08T02:34:26.244Z,93.57
2023-02-08T02:37:23.834Z,93.32
2023-02-08T02:40:12.151Z,94.50
2023-02-08T02:43:15.184Z,94.12
2023-02-08T02:46:02.906Z,94.89
2023-02-08T02:48:47.645Z,94.99
2023-02-08T02:51:44.180Z,94.04
2023-02-08T02:54:19.553Z,95.00
2023-02-08T02:56:50.816Z,94.94
2023-02-08T02:59:18.898Z,95.63
2023-02-08T03:01:47.311Z,95.10
2023-02-08T03:04:36.622Z,93.51
2023-02-08T03:07:26.278Z,94.93
2023-02-08T03:10:30.272Z,94.79
2023-02-08T03:13:18.803Z,94.87
2023-02-08T03:16:06.641Z,94.14
2023-02-08T03:19:21.550Z,93.32
2023-02-08T03:21:57.132Z,93.14
2023-02-08T03:24:42.396Z,93.60
2023-02-08T03:27:31.969Z,94.40
2023-02-08T03:30:01.368Z,95.33
2023-02-08T03:32:51.784Z,95.43
2023-02-08T03:35:34.575Z,94.67
2023-02-08T03:38:15.779Z,94.79
2023-02-08T03:40:45.569Z,95.08
2023-02-08T03:43:17.977Z,95.44
2023-02-08T03:45:55.463Z,94.98
2023-02-08T03:48:25.244Z,96.16
2023-02-08T03:50:54.928Z,96.44
2023-02-08T03:53:23.527Z,96.37
2023-02-08T03:55:55.989Z,95.79
2023-02-08T03:58:28.258Z,96.47
2023-02-08T04:00:59.159Z,95.81
2023-02-08T04:03:31.367Z,96.58
2023-02-08T04:05:58.244Z,95.30
2023-02-08T04:08:25.701Z,95.67
2023-02-08T04:10:52.434Z,96.38
2023-02-08T04:13:18.873Z,97.73
2023-02-08T04:15:45.374Z,97.29
2023-02-08T04:18:11.816Z,97.45
2023-02-08T04:20:38.499Z,98.42
2023-02-08T04:23:05.047Z,98.47
2023-02-08T04:25:31.492Z,98.42
2023-02-08T04:27:57.996Z,98.37
2023-02-08T04:30:24.417Z,98.66
2023-02-08T04:32:50.921Z,99.13
2023-02-08T04:35:17.446Z,99.07
2023-02-08T04:37:43.875Z,99.40
2023-02-08T04:40:11.091Z,98.21
2023-02-08T04:42:37.533Z,97.05
2023-02-08T04:45:04.206Z,96.79
2023-02-08T04:47:30.724Z,96.37
2023-02-08T04:49:57.137Z,95.96
2023-02-08T04:52:23.552Z,94.55
2023-02-08T04:54:49.974Z,94.42
2023-02-08T04:57:16.520Z,95.12
2023-02-08T04:59:42.935Z,94.89
2023-02-08T05:02:09.777Z,95.68
2023-02-08T05:04:36.231Z,96.33
2023-02-08T05:07:02.796Z,96.22
2023-02-08T05:09:29.532Z,96.62
2023-02-08T05:11:55.996Z,96.95
2023-02-08T05:14:22.458Z,96.55
2023-02-08T05:16:48.930Z,96.65
2023-02-08T05:19:15.385Z,97.37
2023-02-08T05:21:41.830Z,96.16
2023-02-08T05:24:12.438Z,96.68
2023-02-08T05:26:40.230Z,98.05
2023-02-08T05:29:08.060Z,98.10
2023-02-08T05:31:34.988Z,97.11
2023-02-08T05:34:01.722Z,95.17
2023-02-08T05:36:28.327Z,96.71
2023-02-08T05:38:54.790Z,96.15
2023-02-08T05:41:21.276Z,95.95
2023-02-08T05:43:47.787Z,95.92
2023-02-08T05:46:14.882Z,96.07
2023-02-08T05:48:41.579Z,96.27
2023-02-08T05:51:08.116Z,97.90
2023-02-08T05:53:34.702Z,97.73
2023-02-08T05:56:01.166Z,97.75
2023-02-08T05:58:28.259Z,97.88
2023-02-08T06:00:54.824Z,97.24
2023-02-08T06:03:23.728Z,96.15
2023-02-08T06:05:50.480Z,95.29
2023-02-08T06:08:17.041Z,95.30
2023-02-08T06:10:43.579Z,94.83
2023-02-08T06:13:10.217Z,95.98
2023-02-08T06:15:36.656Z,96.66
2023-02-08T06:18:03.375Z,96.64
2023-02-08T06:20:29.804Z,95.11
2023-02-08T06:22:56.399Z,94.47
2023-02-08T06:25:22.844Z,93.93
2023-02-08T06:27:49.462Z,94.72
2023-02-08T06:30:16.289Z,95.28
2023-02-08T06:32:42.755Z,95.20
2023-02-08T06:35:09.569Z,94.15
2023-02-08T06:37:36.170Z,95.61
2023-02-08T06:40:03.697Z,94.29
2023-02-08T06:42:30.290Z,95.05
2023-02-08T06:44:57.998Z,94.38
2023-02-08T06:47:26.196Z,94.46
2023-02-08T06:49:53.049Z,95.39
2023-02-08T06:52:20.001Z,94.21
2023-02-08T06:54:46.596Z,93.83
2023-02-08T06:57:13.324Z,93.95
2023-02-08T06:59:41.062Z,93.70
2023-02-08T07:02:15.904Z,93.80
2023-02-08T07:04:42.559Z,94.73
2023-02-08T07:07:12.932Z,96.06
2023-02-08T07:09:39.743Z,95.25
2023-02-08T07:12:06.757Z,95.29
2023-02-08T07:14:35.650Z,95.23
2023-02-08T07:17:02.637Z,94.29
2023-02-08T07:19:29.640Z,96.25
2023-02-08T07:21:56.590Z,95.84
2023-02-08T07:24:23.861Z,95.88
2023-02-08T07:26:50.283Z,95.22
2023-02-08T07:29:16.717Z,95.04
2023-02-08T07:31:43.225Z,95.22
2023-02-08T07:34:09.684Z,96.00
2023-02-08T07:36:36.114Z,96.49
2023-02-08T07:39:02.856Z,96.56
2023-02-08T07:41:29.401Z,96.97
2023-02-08T07:43:55.838Z,95.67
2023-02-08T07:46:22.518Z,96.19
2023-02-08T07:48:52.757Z,96.02
2023-02-08T07:51:19.350Z,96.79
2023-02-08T07:53:46.072Z,96.99
2023-02-08T07:56:12.559Z,96.64
2023-02-08T07:58:39.657Z,96.45
2023-02-08T08:01:20.993Z,96.03
2023-02-08T08:03:49.170Z,95.88
2023-02-08T08:06:15.630Z,95.84
2023-02-08T08:08:43.203Z,95.15
2023-02-08T08:11:09.652Z,94.63
2023-02-08T08:13:36.070Z,91.26
2023-02-08T08:16:02.559Z,92.18
2023-02-08T08:18:29.263Z,92.37
2023-02-08T08:20:55.725Z,93.20
2023-02-08T08:23:22.424Z,93.53
2023-02-08T08:25:50.197Z,91.92
2023-02-08T08:28:16.790Z,91.70
2023-02-08T08:30:44.787Z,91.87
2023-02-08T08:33:12.106Z,93.16
2023-02-08T08:35:38.574Z,91.42
2023-02-08T08:38:05.007Z,91.82
2023-02-08T08:40:31.819Z,91.90
2023-02-08T08:42:58.257Z,91.80
2023-02-08T08:45:24.701Z,90.47
2023-02-08T08:47:51.133Z,90.83
2023-02-08T08:50:17.610Z,90.57
2023-02-08T08:52:44.094Z,90.54
2023-02-08T08:55:10.615Z,89.31
2023-02-08T08:57:37.049Z,88.85
2023-02-08T09:00:04.732Z,88.20
2023-02-08T09:02:31.165Z,88.06
2023-02-08T09:05:00.214Z,88.11
2023-02-08T09:07:26.783Z,87.18
2023-02-08T09:09:53.180Z,89.40
2023-02-08T09:12:19.611Z,86.07
2023-02-08T09:14:46.059Z,86.83
2023-02-08T09:17:12.592Z,85.54
2023-02-08T09:19:39.187Z,85.12
2023-02-08T09:22:08.790Z,85.53
2023-02-08T09:24:35.488Z,84.78
2023-02-08T09:27:01.945Z,83.74
2023-02-08T09:29:30.042Z,84.00
2023-02-08T09:31:56.855Z,83.13
2023-02-08T09:34:23.624Z,84.06
2023-02-08T09:36:50.141Z,82.83
2023-02-08T09:39:22.931Z,83.42
2023-02-08T09:41:55.303Z,84.04
2023-02-08T09:44:33.701Z,84.14
2023-02-08T09:47:31.207Z,84.38
2023-02-08T09:50:04.857Z,83.54
2023-02-08T09:52:40.464Z,82.09
2023-02-08T09:55:25.299Z,83.46
2023-02-08T09:57:54.773Z,80.53
2023-02-08T10:00:31.902Z,80.76
2023-02-08T10:03:01.600Z,80.88
2023-02-08T10:05:30.047Z,81.41
2023-02-08T10:07:58.477Z,81.59
2023-02-08T10:10:43.242Z,83.75
2023-02-08T10:13:41.671Z,79.69
2023-02-08T10:16:23.655Z,80.28
2023-02-08T10:19:16.094Z,79.64
2023-02-08T10:21:52.217Z,78.83
2023-02-08T10:24:37.807Z,83.91
2023-02-08T10:27:16.149Z,80.66
2023-02-08T10:29:51.600Z,78.11
2023-02-08T10:32:38.774Z,77.98
2023-02-08T10:35:14.397Z,79.00
2023-02-08T10:37:43.430Z,77.34
2023-02-08T10:40:20.896Z,77.06
2023-02-08T10:43:07.684Z,78.53
2023-02-08T10:46:24.754Z,76.09
2023-02-08T10:49:20.331Z,73.97
2023-02-08T10:51:47.508Z,76.11
2023-02-08T10:54:15.449Z,75.98
2023-02-08T10:56:50.953Z,74.46
2023-02-08T10:59:21.629Z,75.76
2023-02-08T11:01:49.434Z,75.45
2023-02-08T11:04:16.827Z,73.79
2023-02-08T11:06:44.924Z,74.19
2023-02-08T11:09:29.764Z,74.77
2023-02-08T11:11:59.457Z,75.08
2023-02-08T11:14:47.027Z,74.83
2023-02-08T11:17:32.764Z,74.66
2023-02-08T11:20:00.266Z,74.65
2023-02-08T11:22:31.158Z,75.67
2023-02-08T11:25:05.477Z,75.58
2023-02-08T11:27:34.179Z,74.31
2023-02-08T11:30:21.032Z,74.46
2023-02-08T11:32:49.934Z,72.86
2023-02-08T11:35:24.054Z,74.66
2023-02-08T11:37:56.554Z,75.74
2023-02-08T11:40:42.830Z,74.79
2023-02-08T11:43:21.598Z,74.13
2023-02-08T11:45:48.654Z,75.29
2023-02-08T11:48:33.080Z,74.71
2023-02-08T11:51:02.290Z,73.01
2023-02-08T11:53:39.649Z,73.06
2023-02-08T11:56:19.255Z,72.87
2023-02-08T11:59:14.602Z,73.50
2023-02-08T12:01:42.725Z,74.73
2023-02-08T12:04:17.558Z,76.25
2023-02-08T12:07:05.539Z,75.12
2023-02-08T12:10:13.124Z,75.68
2023-02-08T12:12:49.370Z,75.46
2023-02-08T12:15:57.037Z,74.98
2023-02-08T12:18:50.310Z,75.15
2023-02-08T12:21:25.134Z,75.08
2023-02-08T12:24:35.954Z,76.24
2023-02-08T12:27:19.265Z,76.89
2023-02-08T12:29:55.810Z,76.34
2023-02-08T12:32:37.378Z,76.45
2023-02-08T12:35:33.108Z,77.37
2023-02-08T12:38:46.013Z,78.73
2023-02-08T12:41:51.562Z,77.68
2023-02-08T12:44:36.398Z,76.09
2023-02-08T12:47:37.187Z,78.27
2023-02-08T12:50:42.306Z,77.69
2023-02-08T12:53:26.019Z,78.32
2023-02-08T12:55:55.235Z,78.18
2023-02-08T12:58:38.730Z,77.29
2023-02-08T13:01:17.895Z,75.36
2023-02-08T13:04:15.316Z,75.98
2023-02-08T13:06:44.826Z,76.63
2023-02-08T13:09:35.773Z,78.02
2023-02-08T13:12:31.631Z,77.91
2023-02-08T13:15:11.924Z,78.10
2023-02-08T13:17:51.987Z,78.60
2023-02-08T13:20:31.017Z,78.12
2023-02-08T13:23:03.614Z,77.54
2023-02-08T13:25:34.271Z,77.69
2023-02-08T13:28:02.849Z,78.55
2023-02-08T13:30:30.039Z,78.17
2023-02-08T13:32:57.704Z,77.47
2023-02-08T13:35:28.340Z,76.06
2023-02-08T13:38:04.336Z,76.63
2023-02-08T13:40:37.643Z,78.09
2023-02-08T13:43:33.968Z,77.76
2023-02-08T13:46:02.423Z,76.54
2023-02-08T13:48:43.168Z,78.18
2023-02-08T13:51:32.239Z,78.35
2023-02-08T13:53:58.687Z,78.32
2023-02-08T13:56:37.351Z,77.28
2023-02-08T13:59:05.888Z,78.14
2023-02-08T14:01:36.196Z,77.61
2023-02-08T14:04:08.707Z,77.26
2023-02-08T14:06:44.157Z,77.82
2023-02-08T14:09:44.004Z,77.03
2023-02-08T14:12:50.243Z,78.03
2023-02-08T14:15:16.647Z,79.19
2023-02-08T14:17:49.607Z,76.70
2023-02-08T14:20:29.563Z,77.88
2023-02-08T14:23:00.086Z,74.88
2023-02-08T14:25:38.339Z,74.13
2023-02-08T14:28:05.797Z,76.34
2023-02-08T14:30:36.066Z,74.75
2023-02-08T14:33:08.533Z,75.46
2023-02-08T14:35:39.188Z,74.29
2023-02-08T14:38:24.104Z,75.83
2023-02-08T14:41:01.182Z,75.19
2023-02-08T14:43:39.209Z,74.94
2023-02-08T14:46:37.301Z,74.33
2023-02-08T14:49:37.411Z,74.75
2023-02-08T14:52:10.722Z,73.81
2023-02-08T14:54:46.825Z,75.42
2023-02-08T14:57:35.732Z,73.45
2023-02-08T15:00:07.120Z,73.99
2023-02-08T15:02:35.891Z,73.41
2023-02-08T15:05:09.737Z,72.16
2023-02-08T15:07:50.014Z,70.65
2023-02-08T15:10:18.736Z,70.97
2023-02-08T15:12:50.714Z,71.22
2023-02-08T15:15:24.724Z,71.16
2023-02-08T15:17:53.351Z,69.62
2023-02-08T15:20:31.728Z,68.39
2023-02-08T15:23:19.332Z,69.35
2023-02-08T15:26:01.815Z,70.46
2023-02-08T15:28:31.669Z,71.02
2023-02-08T15:31:09.727Z,71.81
2023-02-08T15:33:42.465Z,69.94
2023-02-08T15:36:21.131Z,70.77
2023-02-08T15:38:48.211Z,70.43
2023-02-08T15:41:24.577Z,69.55
2023-02-08T15:43:51.152Z,69.39
2023-02-08T15:46:22.316Z,69.09
2023-02-08T15:49:15.228Z,68.82
2023-02-08T15:51:42.984Z,68.28
2023-02-08T15:54:16.811Z,68.60
2023-02-08T15:56:49.860Z,69.74
2023-02-08T15:59:22.918Z,69.58
2023-02-08T16:01:50.300Z,68.52
2023-02-08T16:04:16.975Z,69.94
2023-02-08T16:06:56.620Z,69.58
2023-02-08T16:09:27.450Z,70.46
2023-02-08T16:11:58.061Z,68.66
2023-02-08T16:14:29.014Z,68.99
2023-02-08T16:16:57.912Z,68.93
2023-02-08T16:19:30.669Z,69.57
2023-02-08T16:22:20.836Z,69.99
2023-02-08T16:24:47.736Z,70.21
2023-02-08T16:27:26.387Z,70.34
2023-02-08T16:29:53.693Z,71.56
2023-02-08T16:32:33.289Z,69.80
2023-02-08T16:35:01.291Z,70.62
2023-02-08T16:37:35.005Z,70.94
2023-02-08T16:40:04.393Z,70.53
2023-02-08T16:42:39.676Z,71.60
2023-02-08T16:45:13.743Z,71.35
2023-02-08T16:47:52.590Z,70.78
2023-02-08T16:50:24.543Z,71.18
2023-02-08T16:52:55.258Z,71.83
2023-02-08T16:55:25.185Z,71.91
2023-02-08T16:57:54.018Z,72.70
2023-02-08T17:00:24.076Z,71.94
2023-02-08T17:02:51.379Z,71.91
2023-02-08T17:05:19.245Z,72.82
2023-02-08T17:07:46.135Z,73.40
2023-02-08T17:10:28.329Z,72.83
2023-02-08T17:13:09.956Z,73.56
2023-02-08T17:15:43.500Z,74.55
2023-02-08T17:18:12.426Z,74.38
2023-02-08T17:20:38.924Z,73.19
2023-02-08T17:23:05.961Z,72.82
2023-02-08T17:25:34.104Z,72.41
2023-02-08T17:28:06.819Z,72.95
2023-02-08T17:30:36.501Z,73.42
2023-02-08T17:33:11.471Z,74.36
2023-02-08T17:35:38.248Z,74.68
2023-02-08T17:38:05.667Z,73.93
2023-02-08T17:40:35.197Z,74.93
2023-02-08T17:43:02.718Z,73.57
2023-02-08T17:45:29.610Z,74.19
2023-02-08T17:47:59.998Z,74.63
2023-02-08T17:50:26.613Z,73.89
2023-02-08T17:52:53.102Z,74.19
2023-02-08T17:55:19.607Z,73.72
2023-02-08T17:57:46.688Z,74.12
2023-02-08T18:00:18.896Z,73.85
2023-02-08T18:02:47.395Z,72.84
2023-02-08T18:05:15.223Z,73.53
2023-02-08T18:07:41.929Z,75.45
2023-02-08T18:10:11.391Z,75.09
2023-02-08T18:12:38.107Z,74.87
2023-02-08T18:15:07.850Z,74.31
2023-02-08T18:17:34.676Z,75.28
2023-02-08T18:20:01.567Z,75.34
2023-02-08T18:22:28.534Z,74.68
2023-02-08T18:24:55.316Z,76.14
2023-02-08T18:27:25.069Z,75.91
2023-02-08T18:29:51.584Z,75.83
2023-02-08T18:32:20.226Z,75.28
2023-02-08T18:34:46.767Z,76.04
2023-02-08T18:37:13.165Z,75.30
2023-02-08T18:39:39.645Z,75.94
2023-02-08T18:42:06.499Z,76.54
2023-02-08T18:44:36.685Z,75.52
2023-02-08T18:47:03.826Z,77.32
2023-02-08T18:49:30.450Z,77.33
2023-02-08T18:51:57.068Z,77.81
2023-02-08T18:54:23.577Z,78.19
2023-02-08T18:56:53.969Z,78.21
2023-02-08T18:59:20.449Z,77.14
2023-02-08T19:01:46.938Z,77.23
2023-02-08T19:04:13.366Z,77.90
2023-02-08T19:06:39.830Z,78.06
2023-02-08T19:09:07.531Z,76.68
2023-02-08T19:11:36.585Z,76.77
2023-02-08T19:14:06.256Z,77.73
2023-02-08T19:16:34.719Z,79.46
2023-02-08T19:19:01.797Z,79.08
2023-02-08T19:21:29.274Z,80.61
2023-02-08T19:23:59.797Z,80.85
2023-02-08T19:26:29.129Z,80.70
2023-02-08T19:28:59.128Z,80.79
2023-02-08T19:31:27.903Z,80.09
2023-02-08T19:33:58.593Z,80.86
2023-02-08T19:36:31.674Z,80.15
2023-02-08T19:38:59.437Z,80.56
2023-02-08T19:41:30.834Z,80.55
2023-02-08T19:43:57.250Z,81.49
2023-02-08T19:46:26.562Z,80.54
2023-02-08T19:48:56.082Z,81.38
2023-02-08T19:51:22.687Z,80.71
2023-02-08T19:53:49.318Z,80.81
2023-02-08T19:56:17.288Z,81.67
2023-02-08T19:58:44.367Z,81.35
2023-02-08T20:01:19.533Z,82.64
2023-02-08T20:03:47.391Z,83.59
2023-02-08T20:06:18.323Z,83.73
2023-02-08T20:08:45.351Z,84.44
2023-02-08T20:11:33.791Z,84.66
2023-02-08T20:14:01.219Z,85.21
2023-02-08T20:16:31.562Z,85.13
2023-02-08T20:18:58.701Z,85.54
2023-02-08T20:21:25.116Z,86.98
2023-02-08T20:23:52.216Z,87.31
2023-02-08T20:26:27.219Z,87.67
2023-02-08T20:28:58.555Z,87.97
2023-02-08T20:31:28.487Z,87.95
2023-02-08T20:33:59.616Z,88.11
2023-02-08T20:36:28.530Z,89.22
2023-02-08T20:38:56.782Z,89.91
2023-02-08T20:41:25.455Z,89.79
2023-02-08T20:43:53.154Z,89.74
2023-02-08T20:46:24.952Z,90.20
2023-02-08T20:48:52.890Z,90.83
2023-02-08T20:51:21.655Z,90.50
2023-02-08T20:53:49.584Z,90.76
2023-02-08T20:56:19.484Z,91.14
2023-02-08T20:58:46.126Z,91.18
2023-02-08T21:01:15.896Z,91.95
2023-02-08T21:03:42.940Z,92.20
2023-02-08T21:06:15.864Z,91.21
2023-02-08T21:08:42.938Z,91.57
2023-02-08T21:11:10.201Z,91.06
2023-02-08T21:13:37.145Z,91.55
2023-02-08T21:16:08.279Z,91.48
2023-02-08T21:18:35.048Z,91.08
2023-02-08T21:21:01.752Z,91.78
2023-02-08T21:23:28.672Z,92.11
2023-02-08T21:25:55.158Z,92.19
2023-02-08T21:28:21.660Z,92.16
2023-02-08T21:31:04.408Z,92.17
2023-02-08T21:33:31.112Z,91.99
2023-02-08T21:36:05.228Z,92.73
2023-02-08T21:38:31.814Z,93.46
2023-02-08T21:40:58.317Z,94.58
2023-02-08T21:43:24.915Z,95.03
2023-02-08T21:45:51.354Z,95.23
2023-02-08T21:48:17.789Z,95.39
2023-02-08T21:51:02.945Z,95.89
2023-02-08T21:53:52.304Z,96.93
2023-02-08T21:56:18.890Z,97.20
2023-02-08T21:58:45.284Z,98.15
2023-02-08T22:01:11.793Z,98.64
2023-02-08T22:03:38.326Z,99.20
2023-02-08T22:06:23.412Z,99.72
2023-02-08T22:08:49.910Z,98.84
2023-02-08T22:11:16.378Z,99.94
2023-02-08T22:13:43.870Z,99.62
2023-02-08T22:16:11.077Z,99.52
2023-02-08T22:18:41.227Z,100.00
2023-02-08T22:21:08.388Z,100.00
2023-02-08T22:23:34.905Z,100.00
2023-02-08T22:26:07.349Z,100.00
2023-02-08T22:28:33.940Z,100.00
2023-02-08T22:31:01.562Z,100.00
2023-02-08T22:33:28.852Z,100.00
2023-02-08T22:35:55.957Z,100.00
2023-02-08T22:38:23.501Z,100.00
2023-02-08T22:40:50.168Z,100.00
2023-02-08T22:43:16.993Z,100.00
2023-02-08T22:45:43.519Z,100.00
2023-02-08T22:48:10.503Z,100.00
2023-02-08T22:50:38.087Z,100.00
2023-02-08T22:53:04.516Z,100.00
2023-02-08T22:55:30.976Z,100.00
2023-02-08T22:57:57.429Z,100.00
2023-02-08T23:00:23.979Z,100.00
2023-02-08T23:02:50.438Z,100.00
2023-02-08T23:05:16.889Z,100.00
2023-02-08T23:07:43.402Z,100.00
2023-02-08T23:10:10.801Z,100.00
2023-02-08T23:12:37.240Z,100.00
2023-02-08T23:15:04.650Z,100.00
2023-02-08T23:17:31.062Z,99.89
2023-02-08T23:19:57.505Z,100.00
2023-02-08T23:22:23.959Z,100.00
2023-02-08T23:24:50.364Z,99.89
2023-02-08T23:27:16.828Z,98.65
2023-02-08T23:29:43.218Z,98.26
2023-02-08T23:32:09.729Z,98.32
2023-02-08T23:34:36.235Z,98.16
2023-02-08T23:37:02.664Z,97.87
2023-02-08T23:39:29.072Z,97.66
2023-02-08T23:41:56.086Z,98.19
2023-02-08T23:44:23.462Z,98.42
2023-02-08T23:46:49.978Z,98.32
2023-02-08T23:49:16.505Z,97.88
2023-02-08T23:51:42.946Z,98.43
2023-02-08T23:54:09.350Z,98.56
2023-02-08T23:56:36.051Z,98.82
2023-02-08T23:59:02.549Z,99.09
